sensor_id;sensor_type;location;lat;lon;timestamp;pressure;altitude;pressure_sealevel;temperature;humidity
40612;BME280;26317;44.894;20.286;2022-07-01T00:00:26;100346.03;;;29.15;50.58
40612;BME280;26317;44.894;20.286;2022-07-01T00:02:55;100345.69;;;29.09;50.33
40612;BME280;26317;44.894;20.286;2022-07-01T00:05:24;100349.59;;;29.12;50.92
40612;BME280;26317;44.894;20.286;2022-07-01T00:07:53;100346.88;;;29.08;50.77
40612;BME280;26317;44.894;20.286;2022-07-01T00:10:22;100325.22;;;28.96;51.27
40612;BME280;26317;44.894;20.286;2022-07-01T00:12:53;100354.38;;;29.04;51.21
40612;BME280;26317;44.894;20.286;2022-07-01T00:15:22;100346.09;;;29.01;51.63
40612;BME280;26317;44.894;20.286;2022-07-01T00:17:54;100347.31;;;28.89;51.42
40612;BME280;26317;44.894;20.286;2022-07-01T00:20:23;100351.28;;;28.88;51.48
40612;BME280;26317;44.894;20.286;2022-07-01T00:22:52;100349.72;;;28.84;51.59
40612;BME280;26317;44.894;20.286;2022-07-01T00:25:21;100347.34;;;28.82;52.08
40612;BME280;26317;44.894;20.286;2022-07-01T00:27:52;100353.66;;;28.79;51.71
40612;BME280;26317;44.894;20.286;2022-07-01T00:30:21;100348.94;;;28.79;52.14
40612;BME280;26317;44.894;20.286;2022-07-01T00:32:50;100322.91;;;28.59;52.22
40612;BME280;26317;44.894;20.286;2022-07-01T00:35:19;100345.38;;;28.75;52.11
40612;BME280;26317;44.894;20.286;2022-07-01T00:37:48;100351.31;;;28.74;51.98
40612;BME280;26317;44.894;20.286;2022-07-01T00:40:17;100342.25;;;28.70;52.18
40612;BME280;26317;44.894;20.286;2022-07-01T00:42:46;100345.78;;;28.74;52.52
40612;BME280;26317;44.894;20.286;2022-07-01T00:45:17;100341.84;;;28.68;52.53
40612;BME280;26317;44.894;20.286;2022-07-01T00:47:46;100352.09;;;28.71;52.52
40612;BME280;26317;44.894;20.286;2022-07-01T00:50:16;100352.88;;;28.68;52.97
40612;BME280;26317;44.894;20.286;2022-07-01T00:52:45;100362.34;;;28.67;52.85
40612;BME280;26317;44.894;20.286;2022-07-01T00:55:15;100348.53;;;28.60;52.69
40612;BME280;26317;44.894;20.286;2022-07-01T00:57:44;100358.00;;;28.62;53.08
40612;BME280;26317;44.894;20.286;2022-07-01T01:00:14;100328.03;;;28.43;53.37
40612;BME280;26317;44.894;20.286;2022-07-01T01:02:48;100361.16;;;28.57;53.81
40612;BME280;26317;44.894;20.286;2022-07-01T01:05:16;100346.19;;;28.51;54.26
40612;BME280;26317;44.894;20.286;2022-07-01T01:07:46;100350.94;;;28.51;54.25
40612;BME280;26317;44.894;20.286;2022-07-01T01:10:19;100352.09;;;28.50;53.85
40612;BME280;26317;44.894;20.286;2022-07-01T01:12:49;100352.50;;;28.45;54.18
40612;BME280;26317;44.894;20.286;2022-07-01T01:15:19;100341.09;;;28.43;54.29
40612;BME280;26317;44.894;20.286;2022-07-01T01:17:51;100347.38;;;28.40;54.04
40612;BME280;26317;44.894;20.286;2022-07-01T01:20:22;100345.41;;;28.40;54.60
40612;BME280;26317;44.894;20.286;2022-07-01T01:22:54;100351.72;;;28.37;54.75
40612;BME280;26317;44.894;20.286;2022-07-01T01:25:23;100355.25;;;28.30;54.47
40612;BME280;26317;44.894;20.286;2022-07-01T01:27:51;100355.66;;;28.18;54.70
40612;BME280;26317;44.894;20.286;2022-07-01T01:30:21;100357.25;;;28.12;54.81
40612;BME280;26317;44.894;20.286;2022-07-01T01:32:49;100354.06;;;28.10;54.81
40612;BME280;26317;44.894;20.286;2022-07-01T01:35:19;100356.81;;;28.03;55.25
40612;BME280;26317;44.894;20.286;2022-07-01T01:37:49;100353.66;;;27.94;55.53
40612;BME280;26317;44.894;20.286;2022-07-01T01:40:21;100361.13;;;27.94;55.74
40612;BME280;26317;44.894;20.286;2022-07-01T01:42:50;100318.16;;;27.61;56.11
40612;BME280;26317;44.894;20.286;2022-07-01T01:45:18;100354.41;;;27.80;56.04
40612;BME280;26317;44.894;20.286;2022-07-01T01:47:47;100355.19;;;27.77;56.08
40612;BME280;26317;44.894;20.286;2022-07-01T01:50:16;100357.56;;;27.79;55.68
40612;BME280;26317;44.894;20.286;2022-07-01T01:52:45;100353.59;;;27.73;55.79
40612;BME280;26317;44.894;20.286;2022-07-01T01:55:30;100363.09;;;27.79;56.11
40612;BME280;26317;44.894;20.286;2022-07-01T01:58:04;100361.50;;;27.74;56.19
40612;BME280;26317;44.894;20.286;2022-07-01T02:00:33;100352.44;;;27.74;56.37
40612;BME280;26317;44.894;20.286;2022-07-01T02:03:03;100353.59;;;27.66;56.23
40612;BME280;26317;44.894;20.286;2022-07-01T02:05:34;100352.03;;;27.65;56.19
40612;BME280;26317;44.894;20.286;2022-07-01T02:08:04;100352.81;;;27.58;56.38
40612;BME280;26317;44.894;20.286;2022-07-01T02:10:35;100355.56;;;27.62;55.64
40612;BME280;26317;44.894;20.286;2022-07-01T02:13:04;100328.34;;;27.42;56.31
40612;BME280;26317;44.894;20.286;2022-07-01T02:15:33;100353.19;;;27.60;56.18
40612;BME280;26317;44.894;20.286;2022-07-01T02:18:02;100360.66;;;27.60;55.87
40612;BME280;26317;44.894;20.286;2022-07-01T02:20:31;100342.09;;;27.42;56.07
40612;BME280;26317;44.894;20.286;2022-07-01T02:23:00;100365.38;;;27.56;55.48
40612;BME280;26317;44.894;20.286;2022-07-01T02:25:29;100365.78;;;27.51;55.08
40612;BME280;26317;44.894;20.286;2022-07-01T02:28:01;100364.19;;;27.53;55.54
40612;BME280;26317;44.894;20.286;2022-07-01T02:30:32;100365.78;;;27.54;55.42
40612;BME280;26317;44.894;20.286;2022-07-01T02:33:02;100377.19;;;27.53;55.29
40612;BME280;26317;44.894;20.286;2022-07-01T02:35:31;100359.81;;;27.38;55.44
40612;BME280;26317;44.894;20.286;2022-07-01T02:38:00;100362.94;;;27.43;55.67
40612;BME280;26317;44.894;20.286;2022-07-01T02:40:29;100373.59;;;27.45;55.96
40612;BME280;26317;44.894;20.286;2022-07-01T02:43:02;100372.41;;;27.46;56.05
40612;BME280;26317;44.894;20.286;2022-07-01T02:45:31;100373.97;;;27.40;55.52
40612;BME280;26317;44.894;20.286;2022-07-01T02:48:00;100377.13;;;27.38;55.44
40612;BME280;26317;44.894;20.286;2022-07-01T02:50:29;100377.50;;;27.33;55.46
40612;BME280;26317;44.894;20.286;2022-07-01T02:52:58;100386.53;;;27.34;55.68
40612;BME280;26317;44.894;20.286;2022-07-01T02:55:27;100383.00;;;27.33;55.49
40612;BME280;26317;44.894;20.286;2022-07-01T02:57:56;100378.25;;;27.30;55.46
40612;BME280;26317;44.894;20.286;2022-07-01T03:00:29;100390.47;;;27.36;55.44
40612;BME280;26317;44.894;20.286;2022-07-01T03:02:58;100384.59;;;27.34;55.67
40612;BME280;26317;44.894;20.286;2022-07-01T03:05:27;100382.22;;;27.33;55.29
40612;BME280;26317;44.894;20.286;2022-07-01T03:07:55;100388.50;;;27.33;55.31
40612;BME280;26317;44.894;20.286;2022-07-01T03:10:24;100379.44;;;27.29;55.38
40612;BME280;26317;44.894;20.286;2022-07-01T03:12:53;100347.06;;;27.05;55.08
40612;BME280;26317;44.894;20.286;2022-07-01T03:15:24;100384.97;;;27.33;55.52
40612;BME280;26317;44.894;20.286;2022-07-01T03:17:55;100386.50;;;27.30;56.16
40612;BME280;26317;44.894;20.286;2022-07-01T03:20:24;100384.94;;;27.26;56.15
40612;BME280;26317;44.894;20.286;2022-07-01T03:22:53;100386.47;;;27.23;55.63
40612;BME280;26317;44.894;20.286;2022-07-01T03:25:24;100390.41;;;27.22;55.30
40612;BME280;26317;44.894;20.286;2022-07-01T03:27:53;100384.13;;;27.22;55.96
40612;BME280;26317;44.894;20.286;2022-07-01T03:30:23;100385.66;;;27.16;56.19
40612;BME280;26317;44.894;20.286;2022-07-01T03:32:51;100385.31;;;27.21;55.89
40612;BME280;26317;44.894;20.286;2022-07-01T03:35:23;100390.41;;;27.22;55.44
40612;BME280;26317;44.894;20.286;2022-07-01T03:38:06;100387.28;;;27.24;55.29
40612;BME280;26317;44.894;20.286;2022-07-01T03:40:35;100385.69;;;27.26;55.06
40612;BME280;26317;44.894;20.286;2022-07-01T03:43:04;100395.19;;;27.29;55.13
40612;BME280;26317;44.894;20.286;2022-07-01T03:45:33;100392.81;;;27.31;55.50
40612;BME280;26317;44.894;20.286;2022-07-01T03:48:02;100403.03;;;27.30;55.77
40612;BME280;26317;44.894;20.286;2022-07-01T03:50:34;100371.47;;;27.14;55.37
40612;BME280;26317;44.894;20.286;2022-07-01T03:53:03;100404.63;;;27.35;55.42
40612;BME280;26317;44.894;20.286;2022-07-01T03:55:44;100406.22;;;27.36;55.50
40612;BME280;26317;44.894;20.286;2022-07-01T03:58:13;100410.94;;;27.35;55.83
40612;BME280;26317;44.894;20.286;2022-07-01T04:00:41;100390.81;;;27.24;56.20
40612;BME280;26317;44.894;20.286;2022-07-01T04:03:10;100412.53;;;27.36;56.15
40612;BME280;26317;44.894;20.286;2022-07-01T04:05:42;100405.84;;;27.37;55.88
40612;BME280;26317;44.894;20.286;2022-07-01T04:08:10;100407.00;;;27.36;56.35
40612;BME280;26317;44.894;20.286;2022-07-01T04:10:40;100408.59;;;27.37;56.04
40612;BME280;26317;44.894;20.286;2022-07-01T04:13:11;100416.44;;;27.39;56.28
40612;BME280;26317;44.894;20.286;2022-07-01T04:15:39;100423.97;;;27.38;57.10
40612;BME280;26317;44.894;20.286;2022-07-01T04:18:09;100416.44;;;27.35;56.67
40612;BME280;26317;44.894;20.286;2022-07-01T04:20:41;100423.56;;;27.40;56.82
40612;BME280;26317;44.894;20.286;2022-07-01T04:23:30;100429.06;;;27.40;57.50
40612;BME280;26317;44.894;20.286;2022-07-01T04:25:56;100427.91;;;27.44;57.56
40612;BME280;26317;44.894;20.286;2022-07-01T04:28:25;100424.34;;;27.44;57.83
40612;BME280;26317;44.894;20.286;2022-07-01T04:30:54;100425.16;;;27.44;58.37
40612;BME280;26317;44.894;20.286;2022-07-01T04:33:23;100422.81;;;27.47;58.32
40612;BME280;26317;44.894;20.286;2022-07-01T04:35:54;100416.50;;;27.42;58.54
40612;BME280;26317;44.894;20.286;2022-07-01T04:38:23;100424.03;;;27.53;59.18
40612;BME280;26317;44.894;20.286;2022-07-01T04:40:52;100420.09;;;27.54;59.64
40612;BME280;26317;44.894;20.286;2022-07-01T04:43:34;100420.47;;;27.52;60.19
40612;BME280;26317;44.894;20.286;2022-07-01T04:46:03;100425.63;;;27.57;60.27
40612;BME280;26317;44.894;20.286;2022-07-01T04:48:31;100422.06;;;27.57;60.24
40612;BME280;26317;44.894;20.286;2022-07-01T04:51:03;100433.13;;;27.64;60.11
40612;BME280;26317;44.894;20.286;2022-07-01T04:53:32;100410.25;;;27.53;60.10
40612;BME280;26317;44.894;20.286;2022-07-01T04:56:01;100436.31;;;27.73;59.92
40612;BME280;26317;44.894;20.286;2022-07-01T04:58:30;100448.53;;;27.75;60.05
40612;BME280;26317;44.894;20.286;2022-07-01T05:00:58;100450.50;;;27.82;60.24
40612;BME280;26317;44.894;20.286;2022-07-01T05:03:31;100446.59;;;27.86;60.44
40612;BME280;26317;44.894;20.286;2022-07-01T05:06:02;100438.69;;;27.85;59.77
40612;BME280;26317;44.894;20.286;2022-07-01T05:08:31;100444.25;;;27.99;59.71
40612;BME280;26317;44.894;20.286;2022-07-01T05:11:00;100450.19;;;28.08;58.32
40612;BME280;26317;44.894;20.286;2022-07-01T05:13:29;100447.09;;;28.13;57.41
40612;BME280;26317;44.894;20.286;2022-07-01T05:15:58;100454.19;;;28.21;56.36
40612;BME280;26317;44.894;20.286;2022-07-01T05:18:27;100448.28;;;28.19;56.52
40612;BME280;26317;44.894;20.286;2022-07-01T05:21:11;100459.72;;;28.32;55.75
40612;BME280;26317;44.894;20.286;2022-07-01T05:23:52;100460.09;;;28.30;56.01
40612;BME280;26317;44.894;20.286;2022-07-01T05:26:21;100440.78;;;28.16;55.78
40612;BME280;26317;44.894;20.286;2022-07-01T05:28:52;100463.28;;;28.29;56.09
40612;BME280;26317;44.894;20.286;2022-07-01T05:31:21;100449.44;;;28.18;56.47
40612;BME280;26317;44.894;20.286;2022-07-01T05:33:50;100467.63;;;28.37;56.11
40612;BME280;26317;44.894;20.286;2022-07-01T05:36:22;100476.69;;;28.45;56.39
40612;BME280;26317;44.894;20.286;2022-07-01T05:38:51;100464.84;;;28.44;56.24
40612;BME280;26317;44.894;20.286;2022-07-01T05:41:20;100474.31;;;28.54;55.67
40612;BME280;26317;44.894;20.286;2022-07-01T05:43:49;100456.19;;;28.56;56.28
40612;BME280;26317;44.894;20.286;2022-07-01T05:46:17;100468.78;;;28.64;54.81
40612;BME280;26317;44.894;20.286;2022-07-01T05:48:46;100480.28;;;28.70;52.19
40612;BME280;26317;44.894;20.286;2022-07-01T05:51:15;100474.38;;;28.75;52.96
40612;BME280;26317;44.894;20.286;2022-07-01T05:53:49;100475.16;;;28.79;53.16
40612;BME280;26317;44.894;20.286;2022-07-01T05:56:17;100475.94;;;28.79;53.40
40612;BME280;26317;44.894;20.286;2022-07-01T05:58:46;100474.34;;;28.78;52.93
40612;BME280;26317;44.894;20.286;2022-07-01T06:01:15;100479.50;;;28.80;52.54
40612;BME280;26317;44.894;20.286;2022-07-01T06:03:44;100476.72;;;28.87;52.69
40612;BME280;26317;44.894;20.286;2022-07-01T06:06:13;100479.09;;;28.92;52.53
40612;BME280;26317;44.894;20.286;2022-07-01T06:08:45;100472.34;;;28.93;52.96
40612;BME280;26317;44.894;20.286;2022-07-01T06:11:16;100484.97;;;29.08;53.01
40612;BME280;26317;44.894;20.286;2022-07-01T06:13:45;100480.63;;;29.07;52.24
40612;BME280;26317;44.894;20.286;2022-07-01T06:16:14;100484.97;;;29.12;52.83
40612;BME280;26317;44.894;20.286;2022-07-01T06:18:46;100488.91;;;29.21;52.96
40612;BME280;26317;44.894;20.286;2022-07-01T06:21:15;100477.06;;;29.24;51.84
40612;BME280;26317;44.894;20.286;2022-07-01T06:23:44;100494.81;;;29.38;50.88
40612;BME280;26317;44.894;20.286;2022-07-01T06:26:16;100471.88;;;29.44;51.66
40612;BME280;26317;44.894;20.286;2022-07-01T06:28:45;100484.94;;;29.47;50.63
40612;BME280;26317;44.894;20.286;2022-07-01T06:31:14;100489.22;;;29.52;50.57
40612;BME280;26317;44.894;20.286;2022-07-01T06:33:42;100495.97;;;29.51;51.18
40612;BME280;26317;44.894;20.286;2022-07-01T06:36:11;100498.69;;;29.58;50.69
40612;BME280;26317;44.894;20.286;2022-07-01T06:38:42;100497.88;;;29.61;49.61
40612;BME280;26317;44.894;20.286;2022-07-01T06:41:11;100497.88;;;29.64;49.37
40612;BME280;26317;44.894;20.286;2022-07-01T06:43:59;100476.56;;;29.61;49.29
40612;BME280;26317;44.894;20.286;2022-07-01T06:46:29;100485.19;;;29.78;49.63
40612;BME280;26317;44.894;20.286;2022-07-01T06:48:58;100493.81;;;29.94;49.54
40612;BME280;26317;44.894;20.286;2022-07-01T06:51:30;100492.25;;;29.96;49.29
40612;BME280;26317;44.894;20.286;2022-07-01T06:53:59;100490.59;;;30.09;47.98
40612;BME280;26317;44.894;20.286;2022-07-01T06:56:28;100490.19;;;30.11;46.75
40612;BME280;26317;44.894;20.286;2022-07-01T06:58:59;100494.09;;;30.21;46.50
40612;BME280;26317;44.894;20.286;2022-07-01T07:01:29;100501.53;;;30.31;46.36
40612;BME280;26317;44.894;20.286;2022-07-01T07:03:57;100489.69;;;30.30;45.67
40612;BME280;26317;44.894;20.286;2022-07-01T07:06:26;100491.19;;;30.42;45.13
40612;BME280;26317;44.894;20.286;2022-07-01T07:08:55;100489.59;;;30.44;46.57
40612;BME280;26317;44.894;20.286;2022-07-01T07:11:24;100490.00;;;30.46;44.64
40612;BME280;26317;44.894;20.286;2022-07-01T07:13:53;100480.06;;;30.49;46.46
40612;BME280;26317;44.894;20.286;2022-07-01T07:16:28;100497.84;;;30.55;47.60
40612;BME280;26317;44.894;20.286;2022-07-01T07:18:57;100494.63;;;30.64;47.65
40612;BME280;26317;44.894;20.286;2022-07-01T07:21:26;100457.09;;;30.52;46.03
40612;BME280;26317;44.894;20.286;2022-07-01T07:23:55;100490.91;;;30.77;44.87
40612;BME280;26317;44.894;20.286;2022-07-01T07:26:24;100483.00;;;30.79;45.23
40612;BME280;26317;44.894;20.286;2022-07-01T07:28:53;100492.78;;;30.91;45.74
40612;BME280;26317;44.894;20.286;2022-07-01T07:31:22;100487.19;;;30.94;45.06
40612;BME280;26317;44.894;20.286;2022-07-01T07:33:53;100491.94;;;31.01;43.51
40612;BME280;26317;44.894;20.286;2022-07-01T07:36:22;100490.28;;;31.07;44.23
40612;BME280;26317;44.894;20.286;2022-07-01T07:38:51;100489.84;;;31.12;43.43
40612;BME280;26317;44.894;20.286;2022-07-01T07:41:23;100488.22;;;31.15;44.23
40612;BME280;26317;44.894;20.286;2022-07-01T07:43:52;100478.72;;;31.16;43.65
40612;BME280;26317;44.894;20.286;2022-07-01T07:46:21;100476.19;;;31.28;43.36
40612;BME280;26317;44.894;20.286;2022-07-01T07:48:50;100486.31;;;31.45;44.16
40612;BME280;26317;44.894;20.286;2022-07-01T07:51:21;100486.66;;;31.51;43.73
40612;BME280;26317;44.894;20.286;2022-07-01T07:53:50;100490.06;;;31.66;42.00
40612;BME280;26317;44.894;20.286;2022-07-01T07:56:19;100495.25;;;31.64;42.66
40612;BME280;26317;44.894;20.286;2022-07-01T07:58:47;100489.59;;;31.71;43.52
40612;BME280;26317;44.894;20.286;2022-07-01T08:01:16;100487.53;;;31.78;42.17
40612;BME280;26317;44.894;20.286;2022-07-01T08:03:45;100491.72;;;31.90;41.47
40612;BME280;26317;44.894;20.286;2022-07-01T08:06:14;100494.69;;;32.06;41.99
40612;BME280;26317;44.894;20.286;2022-07-01T08:08:46;100477.25;;;32.06;41.60
40612;BME280;26317;44.894;20.286;2022-07-01T08:11:15;100502.31;;;32.29;39.62
40612;BME280;26317;44.894;20.286;2022-07-01T08:13:44;100489.56;;;32.31;40.05
40612;BME280;26317;44.894;20.286;2022-07-01T08:16:13;100495.72;;;32.46;40.13
40612;BME280;26317;44.894;20.286;2022-07-01T08:18:42;100472.03;;;32.38;40.48
40612;BME280;26317;44.894;20.286;2022-07-01T08:21:10;100502.63;;;32.61;41.08
40612;BME280;26317;44.894;20.286;2022-07-01T08:23:39;100478.41;;;32.62;39.72
40612;BME280;26317;44.894;20.286;2022-07-01T08:26:11;100493.22;;;32.78;39.99
40612;BME280;26317;44.894;20.286;2022-07-01T08:28:40;100484.41;;;32.83;39.47
40612;BME280;26317;44.894;20.286;2022-07-01T08:31:09;100493.84;;;32.90;40.42
40612;BME280;26317;44.894;20.286;2022-07-01T08:33:38;100486.56;;;32.96;40.09
40612;BME280;26317;44.894;20.286;2022-07-01T08:36:09;100497.63;;;32.99;40.19
40612;BME280;26317;44.894;20.286;2022-07-01T08:38:41;100483.16;;;33.08;40.13
40612;BME280;26317;44.894;20.286;2022-07-01T08:41:13;100476.59;;;32.98;39.16
40612;BME280;26317;44.894;20.286;2022-07-01T08:43:43;100486.31;;;33.10;39.80
40612;BME280;26317;44.894;20.286;2022-07-01T08:46:12;100485.00;;;33.18;39.56
40612;BME280;26317;44.894;20.286;2022-07-01T08:48:42;100484.00;;;33.28;40.43
40612;BME280;26317;44.894;20.286;2022-07-01T08:51:11;100482.03;;;33.28;39.32
40612;BME280;26317;44.894;20.286;2022-07-01T08:53:40;100477.63;;;33.31;37.74
40612;BME280;26317;44.894;20.286;2022-07-01T08:56:09;100478.59;;;33.41;38.91
40612;BME280;26317;44.894;20.286;2022-07-01T08:58:53;100476.97;;;33.43;38.21
40612;BME280;26317;44.894;20.286;2022-07-01T09:01:23;100472.84;;;33.51;39.88
40612;BME280;26317;44.894;20.286;2022-07-01T09:03:54;100479.13;;;33.55;39.73
40612;BME280;26317;44.894;20.286;2022-07-01T09:06:26;100478.63;;;33.60;39.75
40612;BME280;26317;44.894;20.286;2022-07-01T09:09:10;100437.66;;;33.41;39.45
40612;BME280;26317;44.894;20.286;2022-07-01T09:11:45;100483.91;;;33.74;39.52
40612;BME280;26317;44.894;20.286;2022-07-01T09:14:23;100472.63;;;33.82;38.85
40612;BME280;26317;44.894;20.286;2022-07-01T09:16:53;100468.09;;;33.88;38.52
40612;BME280;26317;44.894;20.286;2022-07-01T09:19:24;100476.84;;;34.06;37.53
40612;BME280;26317;44.894;20.286;2022-07-01T09:21:55;100468.34;;;34.13;39.25
40612;BME280;26317;44.894;20.286;2022-07-01T09:24:28;100471.69;;;34.24;39.14
40612;BME280;26317;44.894;20.286;2022-07-01T09:26:59;100474.31;;;34.31;38.33
40612;BME280;26317;44.894;20.286;2022-07-01T09:29:34;100475.00;;;34.35;37.30
40612;BME280;26317;44.894;20.286;2022-07-01T09:32:05;100475.94;;;34.45;37.25
40612;BME280;26317;44.894;20.286;2022-07-01T09:34:35;100471.44;;;34.51;37.58
40612;BME280;26317;44.894;20.286;2022-07-01T09:37:11;100467.69;;;34.57;37.40
40612;BME280;26317;44.894;20.286;2022-07-01T09:39:44;100474.25;;;34.67;38.11
40612;BME280;26317;44.894;20.286;2022-07-01T09:42:13;100476.59;;;34.69;37.13
40612;BME280;26317;44.894;20.286;2022-07-01T09:44:56;100457.94;;;34.66;37.00
40612;BME280;26317;44.894;20.286;2022-07-01T09:47:27;100473.34;;;34.86;36.80
40612;BME280;26317;44.894;20.286;2022-07-01T09:49:57;100467.69;;;34.90;36.57
40612;BME280;26317;44.894;20.286;2022-07-01T09:52:27;100475.38;;;34.86;36.22
40612;BME280;26317;44.894;20.286;2022-07-01T09:54:56;100466.44;;;34.91;37.40
40612;BME280;26317;44.894;20.286;2022-07-01T09:57:26;100464.28;;;34.98;38.48
40612;BME280;26317;44.894;20.286;2022-07-01T09:59:58;100467.31;;;35.04;37.50
40612;BME280;26317;44.894;20.286;2022-07-01T10:02:33;100467.81;;;34.99;36.49
40612;BME280;26317;44.894;20.286;2022-07-01T10:05:06;100466.09;;;35.05;36.77
40612;BME280;26317;44.894;20.286;2022-07-01T10:07:47;100462.66;;;35.14;35.37
40612;BME280;26317;44.894;20.286;2022-07-01T10:10:33;100456.63;;;35.31;36.54
40612;BME280;26317;44.894;20.286;2022-07-01T10:13:08;100460.34;;;35.53;35.07
40612;BME280;26317;44.894;20.286;2022-07-01T10:15:42;100465.69;;;35.77;34.66
40612;BME280;26317;44.894;20.286;2022-07-01T10:18:19;100466.81;;;35.92;34.34
40612;BME280;26317;44.894;20.286;2022-07-01T10:20:49;100467.72;;;36.02;33.60
40612;BME280;26317;44.894;20.286;2022-07-01T10:23:20;100465.47;;;36.09;33.91
40612;BME280;26317;44.894;20.286;2022-07-01T10:25:50;100464.59;;;36.12;33.77
40612;BME280;26317;44.894;20.286;2022-07-01T10:28:25;100450.84;;;36.05;33.33
40612;BME280;26317;44.894;20.286;2022-07-01T10:30:59;100459.91;;;36.09;34.86
40612;BME280;26317;44.894;20.286;2022-07-01T10:33:38;100458.16;;;36.15;34.70
40612;BME280;26317;44.894;20.286;2022-07-01T10:36:10;100460.03;;;36.18;34.54
40612;BME280;26317;44.894;20.286;2022-07-01T10:41:41;100457.69;;;36.29;35.58
40612;BME280;26317;44.894;20.286;2022-07-01T10:44:11;100457.91;;;36.35;34.57
40612;BME280;26317;44.894;20.286;2022-07-01T10:46:43;100456.44;;;36.43;32.63
40612;BME280;26317;44.894;20.286;2022-07-01T10:49:13;100443.66;;;36.55;31.69
40612;BME280;26317;44.894;20.286;2022-07-01T10:51:45;100456.97;;;36.63;31.92
40612;BME280;26317;44.894;20.286;2022-07-01T10:57:22;100434.06;;;36.68;32.26
40612;BME280;26317;44.894;20.286;2022-07-01T10:59:55;100427.59;;;36.59;32.39
40612;BME280;26317;44.894;20.286;2022-07-01T11:02:29;100430.91;;;36.66;33.04
40612;BME280;26317;44.894;20.286;2022-07-01T11:05:02;100428.59;;;36.86;31.65
40612;BME280;26317;44.894;20.286;2022-07-01T11:07:33;100429.19;;;37.03;30.46
40612;BME280;26317;44.894;20.286;2022-07-01T11:10:05;100427.03;;;37.20;29.65
40612;BME280;26317;44.894;20.286;2022-07-01T11:12:34;100417.34;;;37.33;29.50
40612;BME280;26317;44.894;20.286;2022-07-01T11:15:04;100416.94;;;37.44;29.83
40612;BME280;26317;44.894;20.286;2022-07-01T11:17:42;100411.78;;;37.43;31.20
40612;BME280;26317;44.894;20.286;2022-07-01T11:20:13;100418.25;;;37.52;30.71
40612;BME280;26317;44.894;20.286;2022-07-01T11:22:42;100410.16;;;37.54;30.77
40612;BME280;26317;44.894;20.286;2022-07-01T11:25:12;100409.88;;;37.52;30.47
40612;BME280;26317;44.894;20.286;2022-07-01T11:27:45;100393.88;;;37.62;29.06
40612;BME280;26317;44.894;20.286;2022-07-01T11:30:20;100407.66;;;37.78;29.39
40612;BME280;26317;44.894;20.286;2022-07-01T11:32:53;100398.09;;;37.66;28.52
40612;BME280;26317;44.894;20.286;2022-07-01T11:35:24;100407.03;;;37.83;27.99
40612;BME280;26317;44.894;20.286;2022-07-01T11:38:10;100392.78;;;37.90;28.60
40612;BME280;26317;44.894;20.286;2022-07-01T11:40:52;100390.50;;;38.07;28.09
40612;BME280;26317;44.894;20.286;2022-07-01T11:43:22;100389.31;;;38.26;28.95
40612;BME280;26317;44.894;20.286;2022-07-01T11:45:51;100386.69;;;38.41;27.54
40612;BME280;26317;44.894;20.286;2022-07-01T11:48:34;100386.28;;;38.60;27.40
40612;BME280;26317;44.894;20.286;2022-07-01T11:51:10;100380.78;;;38.66;27.92
40612;BME280;26317;44.894;20.286;2022-07-01T11:53:42;100371.75;;;38.71;27.37
40612;BME280;26317;44.894;20.286;2022-07-01T11:56:12;100368.19;;;38.80;27.57
40612;BME280;26317;44.894;20.286;2022-07-01T11:58:45;100367.44;;;38.88;26.99
40612;BME280;26317;44.894;20.286;2022-07-01T12:01:26;100372.06;;;39.09;28.46
40612;BME280;26317;44.894;20.286;2022-07-01T12:03:59;100363.31;;;39.17;28.04
40612;BME280;26317;44.894;20.286;2022-07-01T12:06:29;100363.78;;;39.33;26.96
40612;BME280;26317;44.894;20.286;2022-07-01T12:08:58;100366.88;;;39.44;26.41
40612;BME280;26317;44.894;20.286;2022-07-01T12:11:29;100362.66;;;39.49;26.46
40612;BME280;26317;44.894;20.286;2022-07-01T12:13:58;100353.56;;;39.54;25.56
40612;BME280;26317;44.894;20.286;2022-07-01T12:16:26;100343.84;;;39.64;26.31
40612;BME280;26317;44.894;20.286;2022-07-01T12:18:59;100350.06;;;39.68;24.66
40612;BME280;26317;44.894;20.286;2022-07-01T12:21:29;100345.41;;;39.74;25.29
40612;BME280;26317;44.894;20.286;2022-07-01T12:24:02;100347.06;;;39.81;25.70
40612;BME280;26317;44.894;20.286;2022-07-01T12:26:31;100341.88;;;39.88;25.48
40612;BME280;26317;44.894;20.286;2022-07-01T12:29:01;100326.88;;;39.91;25.05
40612;BME280;26317;44.894;20.286;2022-07-01T12:31:33;100341.28;;;40.08;25.00
40612;BME280;26317;44.894;20.286;2022-07-01T12:34:05;100336.41;;;40.18;25.21
40612;BME280;26317;44.894;20.286;2022-07-01T12:36:34;100332.88;;;40.32;24.84
40612;BME280;26317;44.894;20.286;2022-07-01T12:39:04;100302.22;;;40.19;24.08
40612;BME280;26317;44.894;20.286;2022-07-01T12:41:36;100328.38;;;40.49;25.52
40612;BME280;26317;44.894;20.286;2022-07-01T12:44:20;100325.97;;;40.57;25.70
40612;BME280;26317;44.894;20.286;2022-07-01T12:46:50;100330.44;;;40.63;24.92
40612;BME280;26317;44.894;20.286;2022-07-01T12:49:23;100331.03;;;40.67;24.43
40612;BME280;26317;44.894;20.286;2022-07-01T12:51:52;100325.31;;;40.62;23.59
40612;BME280;26317;44.894;20.286;2022-07-01T12:54:32;100327.94;;;40.65;23.92
40612;BME280;26317;44.894;20.286;2022-07-01T12:57:02;100325.41;;;40.67;23.91
40612;BME280;26317;44.894;20.286;2022-07-01T12:59:31;100331.22;;;40.64;23.59
40612;BME280;26317;44.894;20.286;2022-07-01T13:02:00;100337.44;;;40.68;24.64
40612;BME280;26317;44.894;20.286;2022-07-01T13:04:35;100328.53;;;40.69;24.59